createdAt,value
2019-02-06T00:01:16.964Z,10.90
2019-02-06T00:03:45.481Z,13.30
2019-02-06T00:06:14.101Z,13.63
2019-02-06T00:08:42.527Z,13.37
2019-02-06T00:11:11.553Z,14.37
2019-02-06T00:13:41.107Z,13.30
2019-02-06T00:16:10.358Z,13.20
2019-02-06T00:18:39.006Z,12.43
2019-02-06T00:21:07.528Z,14.73
2019-02-06T00:23:35.960Z,13.13
2019-02-06T00:26:04.750Z,12.73
2019-02-06T00:28:33.555Z,13.10
2019-02-06T00:31:02.233Z,12.47
2019-02-06T00:33:30.839Z,11.93
2019-02-06T00:35:59.353Z,13.57
2019-02-06T00:38:28.083Z,13.57
2019-02-06T00:40:56.810Z,14.43
2019-02-06T00:43:25.779Z,15.53
2019-02-06T00:45:54.525Z,14.37
2019-02-06T00:48:23.262Z,12.70
2019-02-06T00:50:51.982Z,12.97
2019-02-06T00:53:20.536Z,12.87
2019-02-06T00:55:49.016Z,11.83
2019-02-06T00:58:17.656Z,12.63
2019-02-06T01:00:46.299Z,13.63
2019-02-06T01:03:15.167Z,12.30
2019-02-06T01:05:44.004Z,13.80
2019-02-06T01:08:12.980Z,13.40
2019-02-06T01:10:41.564Z,12.20
2019-02-06T01:13:10.259Z,13.30
2019-02-06T01:15:39.239Z,10.43
2019-02-06T01:18:07.897Z,11.57
2019-02-06T01:20:36.542Z,12.17
2019-02-06T01:23:05.215Z,12.10
2019-02-06T01:25:33.640Z,12.53
2019-02-06T01:28:02.099Z,10.83
2019-02-06T01:30:47.211Z,11.13
2019-02-06T01:33:15.685Z,11.00
2019-02-06T01:35:49.895Z,12.37
2019-02-06T01:38:14.330Z,12.67
2019-02-06T01:40:42.855Z,10.60
2019-02-06T01:43:11.361Z,10.60
2019-02-06T01:45:40.276Z,10.10
2019-02-06T01:48:08.909Z,12.17
2019-02-06T01:50:37.378Z,11.27
2019-02-06T01:53:05.877Z,12.67
2019-02-06T01:55:34.415Z,11.03
2019-02-06T01:58:02.904Z,11.70
2019-02-06T02:00:31.440Z,12.57
2019-02-06T02:02:59.935Z,11.97
2019-02-06T02:05:28.536Z,12.20
2019-02-06T02:07:56.978Z,10.50
2019-02-06T02:10:25.577Z,11.93
2019-02-06T02:12:54.129Z,10.60
2019-02-06T02:15:22.632Z,10.47
2019-02-06T02:17:51.262Z,12.87
2019-02-06T02:20:22.366Z,10.33
2019-02-06T02:22:51.111Z,13.03
2019-02-06T02:25:20.051Z,12.70
2019-02-06T02:27:48.543Z,12.30
2019-02-06T02:30:21.652Z,14.00
2019-02-06T02:32:50.452Z,12.30
2019-02-06T02:35:18.918Z,13.30
2019-02-06T02:37:47.363Z,10.63
2019-02-06T02:40:15.870Z,12.90
2019-02-06T02:42:44.319Z,13.13
2019-02-06T02:45:17.654Z,12.10
2019-02-06T02:47:47.564Z,12.43
2019-02-06T02:50:16.074Z,12.07
2019-02-06T02:52:44.654Z,10.53
2019-02-06T02:55:14.103Z,12.20
2019-02-06T02:57:42.856Z,12.03
2019-02-06T03:00:20.648Z,11.70
2019-02-06T03:03:03.159Z,11.53
2019-02-06T03:05:33.229Z,13.57
2019-02-06T03:08:01.766Z,12.30
2019-02-06T03:10:30.270Z,11.57
2019-02-06T03:12:58.726Z,13.67
2019-02-06T03:15:27.328Z,12.83
2019-02-06T03:17:55.855Z,14.63
2019-02-06T03:20:24.288Z,13.70
2019-02-06T03:22:52.807Z,12.83
2019-02-06T03:25:21.311Z,13.00
2019-02-06T03:27:49.824Z,13.97
2019-02-06T03:30:19.614Z,15.17
2019-02-06T03:32:48.478Z,13.83
2019-02-06T03:35:18.091Z,14.33
2019-02-06T03:37:46.583Z,16.73
2019-02-06T03:40:17.276Z,15.30
2019-02-06T03:42:45.789Z,14.73
2019-02-06T03:45:15.437Z,13.83
2019-02-06T03:47:43.976Z,14.87
2019-02-06T03:50:15.478Z,12.70
2019-02-06T03:52:43.927Z,15.63
2019-02-06T03:55:13.050Z,17.10
2019-02-06T03:57:41.627Z,15.33
2019-02-06T04:00:18.500Z,15.40
2019-02-06T04:02:47.008Z,18.63
2019-02-06T04:05:15.674Z,14.07
2019-02-06T04:07:44.170Z,16.50
2019-02-06T04:10:14.857Z,16.80
2019-02-06T04:12:43.607Z,16.47
2019-02-06T04:15:12.773Z,15.50
2019-02-06T04:17:41.268Z,16.07
2019-02-06T04:20:12.732Z,17.57
2019-02-06T04:22:41.235Z,17.87
2019-02-06T04:25:11.221Z,15.90
2019-02-06T04:27:39.730Z,15.83
2019-02-06T04:30:14.310Z,16.47
2019-02-06T04:32:42.733Z,16.73
2019-02-06T04:35:12.720Z,17.43
2019-02-06T04:37:41.292Z,14.00
2019-02-06T04:40:15.548Z,14.40
2019-02-06T04:42:43.974Z,16.70
2019-02-06T04:45:19.422Z,16.33
2019-02-06T04:47:48.017Z,16.47
2019-02-06T04:50:17.672Z,17.23
2019-02-06T04:52:46.411Z,16.80
2019-02-06T04:55:16.435Z,16.47
2019-02-06T04:57:45.322Z,18.17
2019-02-06T05:00:24.883Z,18.37
2019-02-06T05:02:53.374Z,16.70
2019-02-06T05:05:21.823Z,21.67
2019-02-06T05:07:50.393Z,17.67
2019-02-06T05:10:18.844Z,17.33
2019-02-06T05:12:47.648Z,16.23
2019-02-06T05:15:16.920Z,17.83
2019-02-06T05:17:45.571Z,15.77
2019-02-06T05:20:22.809Z,18.20
2019-02-06T05:22:51.321Z,19.30
2019-02-06T05:25:19.742Z,19.33
2019-02-06T05:27:48.476Z,17.90
2019-02-06T05:30:17.114Z,15.33
2019-02-06T05:32:45.626Z,15.37
2019-02-06T05:35:14.126Z,19.53
2019-02-06T05:37:42.580Z,20.43
2019-02-06T05:40:11.759Z,19.90
2019-02-06T05:42:40.375Z,22.07
2019-02-06T05:45:10.888Z,22.13
2019-02-06T05:47:39.405Z,16.33
2019-02-06T05:50:13.483Z,19.03
2019-02-06T05:52:42.058Z,18.73
2019-02-06T05:55:11.031Z,16.53
2019-02-06T05:57:39.559Z,18.30
2019-02-06T06:00:16.772Z,16.40
2019-02-06T06:02:45.233Z,16.40
2019-02-06T06:05:13.796Z,16.70
2019-02-06T06:07:45.167Z,16.80
2019-02-06T06:10:15.119Z,19.63
2019-02-06T06:12:43.951Z,18.30
2019-02-06T06:15:14.581Z,18.30
2019-02-06T06:17:43.037Z,18.20
2019-02-06T06:20:14.299Z,20.07
2019-02-06T06:22:42.751Z,15.93
2019-02-06T06:25:13.440Z,19.10
2019-02-06T06:27:41.943Z,17.80
2019-02-06T06:30:13.004Z,19.57
2019-02-06T06:32:41.530Z,18.43
2019-02-06T06:35:12.298Z,18.90
2019-02-06T06:37:41.734Z,19.20
2019-02-06T06:40:16.097Z,17.63
2019-02-06T06:42:44.885Z,17.77
2019-02-06T06:45:16.596Z,18.83
2019-02-06T06:47:45.028Z,18.67
2019-02-06T06:50:16.283Z,17.63
2019-02-06T06:52:44.778Z,17.87
2019-02-06T06:55:15.080Z,20.20
2019-02-06T06:57:44.114Z,18.57
2019-02-06T07:00:15.479Z,18.17
2019-02-06T07:02:43.976Z,16.77
2019-02-06T07:05:14.779Z,19.43
2019-02-06T07:07:43.379Z,15.00
2019-02-06T07:10:14.276Z,17.43
2019-02-06T07:12:43.155Z,16.80
2019-02-06T07:15:14.912Z,19.67
2019-02-06T07:17:43.355Z,17.30
2019-02-06T07:20:14.715Z,20.87
2019-02-06T07:23:02.568Z,15.53
2019-02-06T07:25:31.089Z,15.73
2019-02-06T07:27:59.515Z,16.70
2019-02-06T07:30:29.867Z,17.30
2019-02-06T07:32:58.470Z,14.97
2019-02-06T07:35:27.070Z,19.03
2019-02-06T07:37:56.045Z,18.57
2019-02-06T07:40:24.791Z,16.90
2019-02-06T07:42:53.376Z,17.13
2019-02-06T07:45:21.971Z,17.60
2019-02-06T07:47:50.559Z,15.47
2019-02-06T07:50:21.952Z,16.93
2019-02-06T07:52:50.402Z,16.00
2019-02-06T07:55:19.113Z,19.37
2019-02-06T07:57:47.551Z,16.53
2019-02-06T08:00:16.007Z,13.90
2019-02-06T08:02:44.594Z,15.97
2019-02-06T08:05:18.290Z,14.07
2019-02-06T08:07:46.935Z,17.60
2019-02-06T08:10:18.745Z,14.13
2019-02-06T08:12:47.335Z,19.97
2019-02-06T08:15:17.615Z,34.23
2019-02-06T08:17:46.300Z,39.57
2019-02-06T08:20:17.850Z,43.50
2019-02-06T08:22:46.369Z,20.13
2019-02-06T08:25:17.412Z,17.23
2019-02-06T08:27:46.014Z,13.77
2019-02-06T08:30:31.971Z,16.07
2019-02-06T08:33:00.596Z,14.03
2019-02-06T08:35:29.475Z,22.27
2019-02-06T08:37:58.123Z,17.93
2019-02-06T08:40:31.176Z,17.80
2019-02-06T08:43:00.001Z,23.20
2019-02-06T08:45:28.505Z,34.03
2019-02-06T08:47:57.093Z,33.17
2019-02-06T08:50:26.043Z,28.43
2019-02-06T08:52:54.634Z,28.40
2019-02-06T08:55:25.831Z,35.23
2019-02-06T08:57:54.667Z,34.60
2019-02-06T09:00:25.463Z,27.07
2019-02-06T09:02:54.187Z,24.40
2019-02-06T09:05:22.659Z,28.37
2019-02-06T09:07:51.251Z,60.90
2019-02-06T09:10:27.996Z,22.93
2019-02-06T09:12:58.323Z,18.03
2019-02-06T09:15:27.505Z,15.50
2019-02-06T09:17:56.860Z,14.30
2019-02-06T09:20:26.930Z,13.83
2019-02-06T09:22:55.707Z,27.63
2019-02-06T09:25:25.610Z,18.03
2019-02-06T09:27:54.265Z,17.87
2019-02-06T09:30:24.879Z,16.60
2019-02-06T09:32:53.440Z,18.23
2019-02-06T09:35:22.506Z,17.63
2019-02-06T09:37:51.012Z,19.67
2019-02-06T09:40:22.107Z,19.70
2019-02-06T09:42:50.628Z,13.47
2019-02-06T09:45:19.318Z,23.70
2019-02-06T09:47:47.838Z,16.30
2019-02-06T09:50:21.568Z,12.20
2019-02-06T09:52:50.088Z,15.40
2019-02-06T09:55:18.521Z,20.07
2019-02-06T09:57:47.044Z,20.73
2019-02-06T10:00:23.836Z,13.67
2019-02-06T10:02:52.281Z,14.27
2019-02-06T10:05:21.247Z,13.87
2019-02-06T10:07:49.751Z,16.37
2019-02-06T10:10:20.024Z,14.10
2019-02-06T10:12:49.535Z,14.20
2019-02-06T10:15:23.567Z,13.03
2019-02-06T10:17:52.258Z,14.77
2019-02-06T10:20:23.806Z,15.93
2019-02-06T10:22:52.403Z,13.93
2019-02-06T10:25:20.898Z,16.37
2019-02-06T10:27:49.501Z,13.37
2019-02-06T10:30:32.315Z,12.47
2019-02-06T10:33:01.203Z,17.20
2019-02-06T10:35:29.756Z,15.07
2019-02-06T10:37:58.210Z,13.13
2019-02-06T10:40:27.079Z,18.07
2019-02-06T10:42:55.765Z,17.70
2019-02-06T10:45:24.308Z,13.73
2019-02-06T10:47:53.255Z,13.20
2019-02-06T10:50:24.026Z,14.80
2019-02-06T10:52:52.624Z,16.70
2019-02-06T10:55:21.350Z,14.40
2019-02-06T10:57:49.927Z,14.30
2019-02-06T11:00:33.455Z,15.20
2019-02-06T11:03:02.015Z,16.20
2019-02-06T11:05:30.568Z,13.50
2019-02-06T11:07:59.184Z,13.20
2019-02-06T11:10:28.747Z,12.57
2019-02-06T11:12:57.309Z,15.17
2019-02-06T11:15:26.773Z,14.37
2019-02-06T11:17:55.371Z,15.03
2019-02-06T11:20:32.750Z,14.73
2019-02-06T11:23:01.340Z,14.33
2019-02-06T11:25:29.869Z,12.47
2019-02-06T11:27:58.432Z,15.63
2019-02-06T11:30:29.728Z,13.93
2019-02-06T11:32:58.241Z,15.40
2019-02-06T11:35:26.806Z,15.00
2019-02-06T11:37:55.468Z,13.40
2019-02-06T11:40:25.902Z,16.73
2019-02-06T11:42:55.308Z,14.00
2019-02-06T11:45:26.485Z,11.57
2019-02-06T11:47:55.056Z,13.37
2019-02-06T11:50:25.487Z,12.10
2019-02-06T11:52:54.257Z,13.17
2019-02-06T11:55:25.731Z,14.73
2019-02-06T11:57:54.246Z,13.53
2019-02-06T12:00:25.866Z,12.07
2019-02-06T12:02:54.316Z,11.40
2019-02-06T12:05:22.883Z,11.97
2019-02-06T12:07:51.340Z,11.30
2019-02-06T12:10:21.107Z,12.20
2019-02-06T12:12:49.702Z,12.37
2019-02-06T12:15:19.463Z,12.80
2019-02-06T12:17:48.175Z,12.37
2019-02-06T12:20:22.376Z,11.70
2019-02-06T12:22:50.823Z,14.07
2019-02-06T12:25:19.687Z,13.17
2019-02-06T12:27:56.361Z,11.83
2019-02-06T12:30:35.575Z,11.20
2019-02-06T12:33:04.768Z,12.87
2019-02-06T12:35:33.333Z,11.00
2019-02-06T12:38:01.884Z,10.83
2019-02-06T12:40:30.446Z,14.23
2019-02-06T12:42:58.913Z,10.47
2019-02-06T12:45:27.497Z,13.37
2019-02-06T12:47:56.362Z,10.77
2019-02-06T12:50:25.831Z,10.07
2019-02-06T12:52:57.327Z,10.63
2019-02-06T12:55:29.794Z,13.00
2019-02-06T12:57:58.377Z,9.47
2019-02-06T13:00:29.431Z,10.63
2019-02-06T13:03:00.132Z,9.97
2019-02-06T13:05:29.101Z,8.20
2019-02-06T13:07:57.626Z,9.60
2019-02-06T13:10:34.108Z,11.17
2019-02-06T13:12:56.409Z,12.10
2019-02-06T13:15:24.978Z,9.37
2019-02-06T13:17:53.766Z,9.73
2019-02-06T13:20:30.797Z,9.93
2019-02-06T13:22:59.479Z,10.47
2019-02-06T13:25:28.042Z,10.17
2019-02-06T13:27:56.495Z,9.83
2019-02-06T13:30:33.504Z,8.50
2019-02-06T13:33:02.072Z,9.30
2019-02-06T13:35:30.663Z,7.80
2019-02-06T13:37:59.282Z,9.97
2019-02-06T13:40:30.616Z,7.70
2019-02-06T13:42:59.291Z,9.23
2019-02-06T13:45:30.453Z,10.97
2019-02-06T13:47:58.951Z,8.90
2019-02-06T13:50:27.939Z,7.03
2019-02-06T13:52:56.435Z,7.70
2019-02-06T13:55:24.916Z,10.20
2019-02-06T13:57:53.487Z,7.97
2019-02-06T14:00:25.142Z,9.83
2019-02-06T14:02:53.632Z,10.83
2019-02-06T14:05:26.732Z,10.47
2019-02-06T14:07:57.945Z,9.13
2019-02-06T14:10:28.795Z,7.47
2019-02-06T14:12:57.460Z,9.67
2019-02-06T14:15:31.603Z,7.53
2019-02-06T14:18:00.200Z,8.37
2019-02-06T14:20:28.877Z,8.33
2019-02-06T14:23:00.726Z,8.73
2019-02-06T14:25:37.933Z,9.73
2019-02-06T14:28:21.170Z,12.37
2019-02-06T14:30:58.672Z,7.43
2019-02-06T14:33:41.799Z,8.43
2019-02-06T14:36:22.046Z,8.97
2019-02-06T14:38:53.575Z,10.47
2019-02-06T14:41:39.869Z,9.73
2019-02-06T14:44:14.000Z,9.00
2019-02-06T14:46:51.227Z,8.33
2019-02-06T14:49:40.100Z,10.20
2019-02-06T14:52:23.192Z,10.17
2019-02-06T14:54:57.362Z,15.40
2019-02-06T14:57:28.887Z,8.97
2019-02-06T15:00:15.639Z,8.07
2019-02-06T15:02:59.051Z,6.60
2019-02-06T15:05:57.528Z,9.97
2019-02-06T15:08:57.587Z,10.20
2019-02-06T15:11:46.830Z,9.70
2019-02-06T15:14:21.100Z,9.27
2019-02-06T15:17:21.296Z,6.40
2019-02-06T15:20:01.910Z,11.70
2019-02-06T15:22:39.222Z,8.47
2019-02-06T15:25:10.752Z,8.00
2019-02-06T15:27:58.780Z,9.40
2019-02-06T15:30:46.810Z,6.10
2019-02-06T15:33:33.700Z,7.17
2019-02-06T15:36:07.742Z,9.37
2019-02-06T15:38:44.328Z,6.03
2019-02-06T15:41:31.232Z,14.73
2019-02-06T15:43:58.205Z,9.67
2019-02-06T15:46:29.812Z,6.20
2019-02-06T15:49:06.955Z,10.67
2019-02-06T15:51:53.473Z,7.47
2019-02-06T15:54:38.859Z,7.50
2019-02-06T15:57:27.856Z,10.03
2019-02-06T16:00:17.501Z,8.60
2019-02-06T16:03:18.815Z,8.33
2019-02-06T16:06:00.859Z,8.23
2019-02-06T16:08:41.216Z,7.37
2019-02-06T16:11:27.927Z,7.53
2019-02-06T16:14:15.643Z,8.83
2019-02-06T16:16:53.103Z,7.10
2019-02-06T16:20:05.192Z,9.50
2019-02-06T16:22:47.293Z,7.60
2019-02-06T16:25:24.326Z,8.60
2019-02-06T16:28:04.405Z,8.80
2019-02-06T16:30:41.515Z,9.77
2019-02-06T16:33:13.041Z,9.93
2019-02-06T16:36:00.828Z,8.37
2019-02-06T16:38:32.470Z,10.20
2019-02-06T16:41:13.387Z,12.47
2019-02-06T16:43:50.719Z,12.43
2019-02-06T16:46:25.264Z,11.33
2019-02-06T16:48:59.733Z,15.10
2019-02-06T16:51:31.246Z,13.10
2019-02-06T16:54:11.448Z,13.63
2019-02-06T16:57:06.690Z,13.70
2019-02-06T16:59:44.092Z,14.27
2019-02-06T17:02:37.870Z,16.13
2019-02-06T17:05:41.030Z,12.77
2019-02-06T17:08:27.030Z,15.23
2019-02-06T17:11:10.200Z,14.53
2019-02-06T17:13:41.703Z,12.90
2019-02-06T17:16:34.136Z,15.23
2019-02-06T17:19:11.248Z,14.50
2019-02-06T17:21:48.751Z,14.77
2019-02-06T17:24:35.230Z,15.30
2019-02-06T17:27:18.522Z,16.67
2019-02-06T17:29:52.618Z,15.73
2019-02-06T17:32:35.365Z,14.67
2019-02-06T17:35:15.994Z,17.27
2019-02-06T17:38:11.496Z,15.47
2019-02-06T17:40:51.771Z,14.57
2019-02-06T17:43:29.334Z,14.63
2019-02-06T17:46:06.507Z,14.20
2019-02-06T17:48:40.930Z,14.73
2019-02-06T17:51:18.348Z,15.17
2019-02-06T17:53:52.383Z,18.57
2019-02-06T17:56:20.950Z,35.70
2019-02-06T17:58:49.641Z,35.77
2019-02-06T18:01:21.499Z,43.43
2019-02-06T18:03:50.799Z,25.90
2019-02-06T18:06:19.291Z,22.10
2019-02-06T18:08:56.422Z,20.50
2019-02-06T18:11:18.075Z,18.93
2019-02-06T18:13:46.879Z,18.53
2019-02-06T18:16:21.445Z,18.60
2019-02-06T18:18:45.683Z,16.93
2019-02-06T18:21:14.112Z,16.20
2019-02-06T18:23:42.602Z,20.07
2019-02-06T18:26:11.259Z,16.50
2019-02-06T18:28:39.939Z,20.90
2019-02-06T18:31:08.796Z,17.27
2019-02-06T18:33:37.535Z,18.30
2019-02-06T18:36:06.419Z,17.17
2019-02-06T18:38:46.237Z,17.97
2019-02-06T18:41:06.977Z,19.53
2019-02-06T18:43:35.446Z,16.57
2019-02-06T18:46:04.106Z,21.00
2019-02-06T18:48:34.011Z,18.57
2019-02-06T18:51:02.583Z,17.77
2019-02-06T18:53:31.219Z,16.63
2019-02-06T18:55:59.919Z,20.80
2019-02-06T18:58:28.460Z,20.43
2019-02-06T19:00:56.982Z,16.67
2019-02-06T19:03:34.281Z,17.57
2019-02-06T19:06:02.850Z,16.40
2019-02-06T19:08:31.673Z,17.17
2019-02-06T19:11:00.200Z,17.60
2019-02-06T19:13:28.859Z,18.93
2019-02-06T19:15:57.482Z,19.80
2019-02-06T19:18:26.155Z,16.83
2019-02-06T19:20:54.776Z,16.77
2019-02-06T19:23:23.489Z,17.30
2019-02-06T19:25:52.035Z,19.57
2019-02-06T19:28:20.594Z,16.07
2019-02-06T19:30:49.216Z,16.63
2019-02-06T19:33:17.718Z,17.20
2019-02-06T19:35:46.308Z,16.70
2019-02-06T19:38:14.953Z,18.13
2019-02-06T19:40:43.644Z,19.07
2019-02-06T19:43:12.159Z,17.27
2019-02-06T19:45:40.971Z,17.57
2019-02-06T19:48:16.292Z,16.23
2019-02-06T19:50:42.022Z,16.43
2019-02-06T19:53:10.678Z,18.07
2019-02-06T19:55:39.307Z,15.57
2019-02-06T19:58:08.884Z,16.70
2019-02-06T20:00:37.967Z,17.00
2019-02-06T20:03:08.369Z,17.60
2019-02-06T20:05:37.187Z,15.97
2019-02-06T20:08:07.208Z,19.60
2019-02-06T20:10:38.551Z,17.70
2019-02-06T20:13:12.388Z,16.67
2019-02-06T20:15:37.522Z,18.93
2019-02-06T20:18:06.168Z,20.80
2019-02-06T20:20:34.894Z,17.27
2019-02-06T20:23:03.594Z,16.40
2019-02-06T20:25:32.156Z,17.17
2019-02-06T20:28:00.635Z,18.97
2019-02-06T20:30:30.803Z,20.33
2019-02-06T20:32:59.481Z,18.73
2019-02-06T20:35:28.267Z,19.67
2019-02-06T20:37:57.150Z,20.43
2019-02-06T20:40:37.506Z,18.20
2019-02-06T20:43:06.041Z,20.20
2019-02-06T20:45:34.646Z,18.73
2019-02-06T20:48:03.292Z,17.90
2019-02-06T20:50:35.827Z,17.33
2019-02-06T20:53:05.928Z,18.53
2019-02-06T20:55:34.672Z,20.43
2019-02-06T20:58:03.307Z,19.10
2019-02-06T21:00:37.787Z,18.90
2019-02-06T21:03:06.891Z,17.67
2019-02-06T21:05:35.510Z,20.83
2019-02-06T21:08:05.081Z,19.93
2019-02-06T21:10:36.839Z,19.83
2019-02-06T21:13:06.524Z,20.13
2019-02-06T21:15:35.373Z,19.93
2019-02-06T21:18:04.586Z,17.93
2019-02-06T21:20:33.148Z,20.33
2019-02-06T21:23:02.021Z,18.87
2019-02-06T21:25:30.706Z,20.10
2019-02-06T21:27:59.222Z,22.73
2019-02-06T21:30:36.509Z,22.43
2019-02-06T21:33:05.273Z,26.80
2019-02-06T21:35:33.874Z,25.00
2019-02-06T21:38:02.349Z,23.17
2019-02-06T21:40:37.735Z,21.10
2019-02-06T21:43:06.891Z,25.37
2019-02-06T21:45:35.686Z,25.20
2019-02-06T21:48:05.046Z,28.40
2019-02-06T21:50:33.600Z,25.30
2019-02-06T21:53:02.108Z,31.70
2019-02-06T21:55:30.705Z,58.20
2019-02-06T21:57:59.257Z,36.43
2019-02-06T22:00:29.977Z,21.63
2019-02-06T22:02:58.492Z,20.03
2019-02-06T22:05:27.076Z,19.83
2019-02-06T22:07:55.828Z,18.43
2019-02-06T22:10:24.411Z,20.03
2019-02-06T22:12:53.047Z,19.17
2019-02-06T22:17:50.286Z,18.03
2019-02-06T22:20:18.911Z,19.63
2019-02-06T22:22:48.455Z,19.13
2019-02-06T22:25:16.983Z,20.37
2019-02-06T22:27:45.738Z,20.07
2019-02-06T22:30:17.435Z,18.63
2019-02-06T22:32:46.040Z,20.87
2019-02-06T22:35:15.518Z,18.00
2019-02-06T22:37:44.417Z,20.13
2019-02-06T22:40:18.305Z,19.67
2019-02-06T22:42:46.960Z,19.67
2019-02-06T22:45:17.840Z,19.53
2019-02-06T22:47:46.511Z,17.97
2019-02-06T22:50:20.407Z,18.20
2019-02-06T22:52:49.543Z,17.33
2019-02-06T22:55:18.629Z,17.20
2019-02-06T22:57:47.252Z,19.77
2019-02-06T23:00:42.914Z,18.93
2019-02-06T23:03:11.710Z,17.27
2019-02-06T23:05:40.417Z,16.13
2019-02-06T23:08:09.083Z,19.20
2019-02-06T23:10:37.661Z,19.67
2019-02-06T23:13:07.268Z,18.57
2019-02-06T23:15:38.317Z,16.87
2019-02-06T23:18:07.635Z,18.23
2019-02-06T23:20:36.271Z,20.47
2019-02-06T23:23:05.036Z,21.47
2019-02-06T23:25:33.483Z,17.63
2019-02-06T23:28:01.968Z,19.37
2019-02-06T23:30:30.786Z,17.37
2019-02-06T23:32:59.221Z,19.97
2019-02-06T23:35:27.669Z,18.90
2019-02-06T23:37:56.177Z,17.17
2019-02-06T23:40:24.846Z,17.93
2019-02-06T23:42:53.426Z,20.10
2019-02-06T23:45:22.313Z,18.17
2019-02-06T23:47:50.811Z,18.70
2019-02-06T23:50:19.350Z,18.53
2019-02-06T23:52:47.913Z,19.87
2019-02-06T23:55:17.627Z,18.57
2019-02-06T23:57:46.185Z,17.37
